Time;durP1;ratioP1;P1;durP2;ratioP2;P2;SDS_P1;SDS_P2;PMS_P1;PMS_P2;Temp;Humidity;BMP_temperature;BMP_pressure;BME280_temperature;BME280_humidity;BME280_pressure;Samples;Min_cycle;Max_cycle;Signal;HPM_P1;HPM_P2
2022/05/04 00:00:47;;;;;;;13.48;12.35;;;9.50;99.90;;;;;;4974758;28;20403;-90
2022/05/04 00:03:13;;;;;;;14.48;13.02;;;9.40;99.90;;;;;;4957289;28;20049;-90
2022/05/04 00:05:38;;;;;;;14.73;13.43;;;9.30;99.90;;;;;;4956065;28;20486;-91
2022/05/04 00:08:05;;;;;;;14.23;13.07;;;9.10;99.90;;;;;;4968754;28;20063;-90
2022/05/04 00:10:31;;;;;;;16.85;15.20;;;9.00;99.90;;;;;;4976039;28;20053;-90
2022/05/04 00:12:58;;;;;;;16.52;15.18;;;8.80;99.90;;;;;;4958703;28;20027;-89
2022/05/04 00:15:24;;;;;;;16.50;14.90;;;8.70;99.90;;;;;;4976350;28;20027;-90
2022/05/04 00:17:50;;;;;;;16.23;14.82;;;8.50;99.90;;;;;;4959377;28;20029;-91
2022/05/04 00:20:15;;;;;;;17.05;15.55;;;8.50;99.90;;;;;;4959230;28;20585;-90
2022/05/04 00:22:41;;;;;;;20.00;16.45;;;8.40;99.90;;;;;;4959537;28;20031;-90
2022/05/04 00:25:07;;;;;;;17.85;15.07;;;8.40;99.90;;;;;;4959248;28;20101;-90
2022/05/04 00:27:34;;;;;;;17.65;15.95;;;8.30;99.90;;;;;;4976564;28;20046;-91
2022/05/04 00:30:00;;;;;;;16.52;15.32;;;8.30;99.90;;;;;;4976610;28;20094;-90
2022/05/04 00:32:26;;;;;;;17.02;15.65;;;8.20;99.90;;;;;;4964621;28;20105;-89
2022/05/04 00:34:52;;;;;;;16.65;15.35;;;8.20;99.90;;;;;;4959207;28;20050;-90
2022/05/04 00:37:18;;;;;;;18.58;16.80;;;8.20;99.90;;;;;;4971577;28;20031;-90
2022/05/04 00:39:43;;;;;;;16.25;14.98;;;8.10;99.90;;;;;;4959199;28;20050;-91
2022/05/04 00:42:11;;;;;;;18.05;16.33;;;8.10;99.90;;;;;;4976393;28;20382;-90
2022/05/04 00:44:38;;;;;;;15.90;14.50;;;8.10;99.90;;;;;;4959609;28;20110;-90
2022/05/04 00:47:04;;;;;;;16.85;15.30;;;8.00;99.90;;;;;;4976155;28;20049;-90
2022/05/04 00:49:30;;;;;;;16.98;15.52;;;8.00;99.90;;;;;;4958360;28;20023;-90
2022/05/04 00:51:56;;;;;;;20.98;16.75;;;7.90;99.90;;;;;;4976036;28;20114;-91
2022/05/04 00:54:22;;;;;;;21.65;19.40;;;7.90;99.90;;;;;;4958604;28;20117;-91
2022/05/04 00:56:48;;;;;;;22.15;19.55;;;8.00;99.90;;;;;;4977228;28;20031;-92
2022/05/04 00:59:14;;;;;;;18.23;16.63;;;8.00;99.90;;;;;;4958817;28;20023;-90
2022/05/04 01:01:41;;;;;;;19.08;17.38;;;8.00;99.90;;;;;;4968420;28;20055;-90
2022/05/04 01:04:07;;;;;;;18.83;16.85;;;8.00;99.90;;;;;;4950816;28;20031;-90
2022/05/04 01:06:33;;;;;;;17.77;16.30;;;8.00;99.90;;;;;;4977528;28;20034;-91
2022/05/04 01:08:59;;;;;;;18.27;16.13;;;7.90;99.90;;;;;;4978320;28;20038;-91
2022/05/04 01:11:24;;;;;;;18.33;16.60;;;7.80;99.90;;;;;;4995354;28;20045;-91
2022/05/04 01:14:08;;;;;;;22.13;20.23;;;7.70;99.90;;;;;;4976942;28;20446;-89
2022/05/04 01:16:36;;;;;;;24.30;22.00;;;7.60;99.90;;;;;;4977619;28;20041;-91
2022/05/04 01:19:02;;;;;;;25.52;22.85;;;7.50;99.90;;;;;;4991816;28;20026;-89
2022/05/04 01:21:28;;;;;;;24.80;22.33;;;7.50;99.90;;;;;;4978033;28;20486;-90
2022/05/04 01:23:54;;;;;;;26.42;22.38;;;7.50;99.90;;;;;;4991543;28;20033;-90
2022/05/04 01:26:20;;;;;;;22.17;20.38;;;7.50;99.90;;;;;;4983427;28;20557;-90
2022/05/04 01:28:47;;;;;;;23.58;21.13;;;7.50;99.90;;;;;;4985033;28;20038;-91
2022/05/04 01:31:13;;;;;;;23.48;21.05;;;7.40;99.90;;;;;;4986074;28;20023;-90
2022/05/04 01:33:39;;;;;;;23.35;20.75;;;7.40;99.90;;;;;;4952718;28;20424;-90
2022/05/04 01:36:06;;;;;;;25.73;21.20;;;7.40;99.90;;;;;;4976024;28;20124;-89
2022/05/04 01:38:32;;;;;;;23.83;20.50;;;7.40;99.90;;;;;;4976618;28;20031;-91
2022/05/04 01:40:58;;;;;;;25.42;22.83;;;7.40;99.90;;;;;;4979255;28;20169;-90
2022/05/04 01:43:23;;;;;;;22.42;20.15;;;7.40;99.90;;;;;;4979408;28;20080;-90
2022/05/04 01:45:49;;;;;;;23.05;20.77;;;7.40;99.90;;;;;;4980614;28;20039;-90
2022/05/04 01:48:14;;;;;;;22.48;20.17;;;7.30;99.90;;;;;;4977543;28;20023;-90
2022/05/04 01:50:40;;;;;;;21.48;19.35;;;7.20;99.90;;;;;;4987896;28;20475;-90
2022/05/04 01:53:06;;;;;;;22.02;19.15;;;7.20;99.90;;;;;;4976317;28;20114;-90
2022/05/04 01:55:33;;;;;;;22.70;20.30;;;7.20;99.90;;;;;;4979436;28;20085;-90
2022/05/04 01:57:59;;;;;;;22.65;20.52;;;7.20;99.90;;;;;;4978197;28;20030;-89
2022/05/04 02:00:25;;;;;;;22.08;20.08;;;7.10;99.90;;;;;;4978520;28;20031;-89
2022/05/04 02:02:52;;;;;;;23.75;21.30;;;7.10;99.90;;;;;;4979538;28;20074;-90
2022/05/04 02:05:18;;;;;;;25.02;20.30;;;7.10;99.90;;;;;;4979366;28;20039;-90
2022/05/04 02:07:44;;;;;;;30.42;19.38;;;7.10;99.90;;;;;;4978894;28;20118;-90
2022/05/04 02:10:11;;;;;;;22.17;19.80;;;7.00;99.90;;;;;;4978897;28;20062;-89
2022/05/04 02:12:37;;;;;;;21.70;19.58;;;7.00;99.90;;;;;;4993109;28;20520;-90
2022/05/04 02:15:05;;;;;;;22.80;20.52;;;7.00;99.90;;;;;;4961752;28;20035;-90
2022/05/04 02:17:30;;;;;;;23.60;21.00;;;6.90;99.90;;;;;;4961812;28;20059;-90
2022/05/04 02:19:56;;;;;;;22.27;20.27;;;6.90;99.90;;;;;;4978719;28;20050;-90
2022/05/04 02:22:22;;;;;;;22.63;20.38;;;6.90;99.90;;;;;;4978741;28;20027;-91
2022/05/04 02:24:47;;;;;;;22.52;20.50;;;6.80;99.90;;;;;;4961071;28;20042;-90
2022/05/04 02:27:13;;;;;;;23.15;20.88;;;6.80;99.90;;;;;;4962029;28;20058;-90
2022/05/04 02:29:38;;;;;;;24.30;22.00;;;6.80;99.90;;;;;;4979516;28;20086;-90
2022/05/04 02:32:05;;;;;;;21.30;18.20;;;6.70;99.90;;;;;;4978549;28;20031;-91
2022/05/04 02:34:30;;;;;;;22.30;20.10;;;6.70;99.90;;;;;;4961110;28;20031;-90
2022/05/04 02:39:40;;;;;;;25.08;21.98;;;6.70;99.90;;;;;;4979613;28;20058;-90
2022/05/04 02:42:06;;;;;;;26.83;22.90;;;6.70;99.90;;;;;;4961434;28;20027;-89
2022/05/04 02:44:31;;;;;;;24.73;21.52;;;6.80;99.90;;;;;;4978355;28;20035;-90
2022/05/04 02:46:57;;;;;;;23.92;21.58;;;6.80;99.90;;;;;;4978225;28;20801;-91
2022/05/04 02:49:22;;;;;;;24.45;22.05;;;6.80;99.90;;;;;;4957876;28;20032;-91
2022/05/04 02:51:48;;;;;;;25.30;21.80;;;6.80;99.90;;;;;;4977453;28;20030;-90
2022/05/04 02:54:14;;;;;;;25.63;23.08;;;6.80;99.90;;;;;;4976794;28;20027;-91
2022/05/04 02:56:40;;;;;;;26.23;23.58;;;6.80;99.90;;;;;;4977672;28;20034;-90
2022/05/04 02:59:06;;;;;;;26.58;23.98;;;6.80;99.90;;;;;;4961049;28;20772;-90
2022/05/04 03:04:16;;;;;;;26.08;21.92;;;6.80;99.90;;;;;;4993330;28;20034;-90
2022/05/04 03:06:42;;;;;;;22.15;19.70;;;6.80;99.90;;;;;;4979181;28;20494;-90
2022/05/04 03:09:09;;;;;;;23.20;21.00;;;6.80;99.90;;;;;;4979056;28;20076;-88
2022/05/04 03:11:54;;;;;;;21.52;19.50;;;6.80;99.90;;;;;;4978989;28;20037;-90
2022/05/04 03:14:21;;;;;;;21.85;19.95;;;6.80;99.90;;;;;;4995562;28;20110;-90
2022/05/04 03:16:47;;;;;;;23.35;21.10;;;6.80;99.90;;;;;;4991844;28;20035;-90
2022/05/04 03:19:13;;;;;;;21.90;19.77;;;6.80;99.90;;;;;;4985189;28;20022;-88
2022/05/04 03:21:39;;;;;;;19.77;17.98;;;6.80;99.90;;;;;;4995727;28;20023;-90
2022/05/04 03:24:05;;;;;;;19.85;17.95;;;6.80;99.90;;;;;;4979319;28;20037;-90
2022/05/04 03:26:31;;;;;;;21.15;19.05;;;6.90;99.90;;;;;;4984411;28;20406;-88
2022/05/04 03:28:57;;;;;;;22.88;19.95;;;6.80;99.90;;;;;;4980926;28;20022;-90
2022/05/04 03:31:23;;;;;;;21.48;19.38;;;6.80;99.90;;;;;;4996510;28;20027;-90
2022/05/04 03:33:49;;;;;;;20.48;18.73;;;6.90;99.90;;;;;;4996777;28;20029;-90
2022/05/04 03:36:14;;;;;;;22.35;19.33;;;6.90;99.90;;;;;;4996008;28;20046;-90
2022/05/04 03:38:40;;;;;;;24.30;20.30;;;6.90;99.90;;;;;;4989558;28;20033;-88
2022/05/04 03:41:06;;;;;;;29.85;21.52;;;6.90;99.90;;;;;;4996281;28;20077;-89
2022/05/04 03:43:31;;;;;;;23.35;21.30;;;6.90;99.90;;;;;;4996492;28;20410;-90
2022/05/04 03:46:19;;;;;;;24.17;19.58;;;6.90;99.90;;;;;;4979125;28;20034;-89
2022/05/04 03:48:46;;;;;;;19.13;17.42;;;6.90;99.90;;;;;;4977617;28;20498;-90
2022/05/04 03:51:14;;;;;;;21.25;19.30;;;6.90;99.90;;;;;;4996580;28;20057;-89
2022/05/04 03:53:40;;;;;;;20.30;18.33;;;6.90;99.90;;;;;;4994878;28;20433;-90
2022/05/04 03:56:07;;;;;;;19.90;17.80;;;6.90;99.90;;;;;;4996025;28;20050;-90
2022/05/04 03:58:33;;;;;;;21.33;19.35;;;6.90;99.90;;;;;;4978286;28;20494;-90
2022/05/04 04:00:59;;;;;;;19.75;17.80;;;6.90;99.90;;;;;;4978271;28;20050;-90
2022/05/04 04:03:25;;;;;;;21.50;19.58;;;6.90;99.90;;;;;;4993908;28;20840;-89
2022/05/04 04:05:50;;;;;;;22.08;20.05;;;6.90;99.90;;;;;;4977326;28;20109;-90
2022/05/04 04:08:16;;;;;;;20.80;19.02;;;6.90;99.90;;;;;;4995674;28;20026;-90
2022/05/04 04:10:41;;;;;;;22.02;19.95;;;6.90;99.90;;;;;;4972763;28;20050;-89
2022/05/04 04:13:07;;;;;;;21.50;19.52;;;6.90;99.90;;;;;;4991325;28;20030;-88
2022/05/04 04:15:33;;;;;;;21.40;19.50;;;6.90;99.90;;;;;;4974846;28;20048;-89
2022/05/04 04:17:59;;;;;;;21.77;20.00;;;7.00;99.90;;;;;;4975526;28;20053;-91
2022/05/04 04:23:09;;;;;;;21.10;19.20;;;7.10;99.90;;;;;;4976314;28;20105;-90
2022/05/04 04:25:36;;;;;;;20.48;18.35;;;7.20;99.90;;;;;;4979965;28;20031;-91
2022/05/04 04:28:02;;;;;;;18.40;17.00;;;7.30;99.90;;;;;;4983185;28;20082;-90
2022/05/04 04:30:28;;;;;;;20.95;19.13;;;7.50;99.90;;;;;;4979094;28;20022;-91
2022/05/04 04:32:53;;;;;;;19.23;17.58;;;7.60;99.90;;;;;;4977003;28;20438;-89
2022/05/04 04:35:19;;;;;;;19.88;17.92;;;7.70;99.90;;;;;;4981689;28;20027;-89
2022/05/04 04:37:44;;;;;;;18.83;17.15;;;7.80;99.90;;;;;;4984462;28;20481;-90
2022/05/04 04:40:10;;;;;;;17.58;15.75;;;7.80;99.90;;;;;;4974285;28;20102;-90
2022/05/04 04:42:36;;;;;;;17.00;15.68;;;7.90;99.90;;;;;;4976229;28;20029;-91
2022/05/04 04:45:01;;;;;;;18.00;16.52;;;8.00;99.90;;;;;;4976278;28;20081;-90
2022/05/04 04:47:29;;;;;;;19.45;17.77;;;8.00;99.90;;;;;;4973673;28;20101;-88
2022/05/04 04:49:58;;;;;;;18.55;16.55;;;8.00;99.90;;;;;;4975712;28;20035;-91
2022/05/04 04:52:24;;;;;;;17.35;15.82;;;7.90;99.90;;;;;;4974558;28;20073;-91
2022/05/04 04:54:52;;;;;;;18.52;16.85;;;8.00;99.90;;;;;;4976040;28;20027;-92
2022/05/04 04:57:18;;;;;;;18.38;16.63;;;8.00;99.90;;;;;;4976040;28;20038;-90
2022/05/04 04:59:44;;;;;;;18.83;16.85;;;8.10;99.90;;;;;;4976322;28;20111;-90
2022/05/04 05:02:10;;;;;;;17.33;15.93;;;8.20;99.90;;;;;;4982277;28;20038;-88
2022/05/04 05:04:36;;;;;;;16.13;14.63;;;8.40;99.90;;;;;;4973170;28;20546;-91
2022/05/04 05:07:01;;;;;;;14.52;13.10;;;8.60;99.90;;;;;;4973617;28;20035;-91
2022/05/04 05:09:27;;;;;;;13.82;12.63;;;8.80;99.90;;;;;;4976768;28;20031;-90
2022/05/04 05:11:53;;;;;;;14.65;13.48;;;8.90;99.90;;;;;;4994546;28;20034;-91
2022/05/04 05:17:03;;;;;;;12.13;11.02;;;9.30;99.90;;;;;;4976982;28;20034;-90
2022/05/04 05:19:28;;;;;;;11.55;10.65;;;9.60;99.90;;;;;;4973827;28;20114;-91
2022/05/04 05:21:54;;;;;;;12.18;11.27;;;9.80;99.90;;;;;;4961961;28;20115;-90
2022/05/04 05:24:20;;;;;;;12.43;11.30;;;10.00;99.90;;;;;;4971869;28;20018;-88
2022/05/04 05:26:45;;;;;;;13.90;12.50;;;10.30;99.90;;;;;;4978696;28;20031;-90
2022/05/04 05:29:11;;;;;;;13.45;12.05;;;10.80;99.90;;;;;;4976860;28;20484;-90
2022/05/04 05:31:37;;;;;;;13.50;12.43;;;11.70;99.90;;;;;;4978463;28;20023;-91
2022/05/04 05:34:02;;;;;;;11.40;10.48;;;12.80;99.90;;;;;;4978993;28;20490;-90
2022/05/04 05:36:28;;;;;;;11.77;10.77;;;13.90;99.90;;;;;;4979167;28;20085;-89
2022/05/04 05:38:54;;;;;;;10.27;9.57;;;14.60;99.90;;;;;;4979564;28;20019;-90
2022/05/04 05:41:22;;;;;;;10.45;9.65;;;15.00;99.90;;;;;;4970022;28;20030;-90
2022/05/04 05:43:47;;;;;;;10.10;9.20;;;15.50;99.90;;;;;;4988328;28;20102;-91
2022/05/04 05:46:13;;;;;;;9.57;8.73;;;16.40;99.90;;;;;;4966856;28;20162;-90
2022/05/04 05:48:38;;;;;;;9.95;8.95;;;16.90;99.90;;;;;;4966407;28;20123;-91
2022/05/04 05:51:05;;;;;;;8.93;8.18;;;17.30;98.00;;;;;;4992188;28;20041;-91
2022/05/04 05:53:31;;;;;;;8.98;8.23;;;17.80;98.70;;;;;;4974306;28;20019;-91
2022/05/04 05:55:57;;;;;;;9.30;8.50;;;17.70;95.50;;;;;;4975532;28;20045;-91
2022/05/04 05:58:23;;;;;;;9.50;8.70;;;17.50;96.50;;;;;;4973847;28;20066;-90
2022/05/04 06:00:52;;;;;;;10.13;9.43;;;17.50;97.30;;;;;;4975929;28;20180;-90
2022/05/04 06:03:18;;;;;;;10.45;9.48;;;17.30;98.20;;;;;;4972600;28;20483;-89
2022/05/04 06:05:44;;;;;;;8.90;8.10;;;17.80;96.90;;;;;;4975740;28;20034;-91
2022/05/04 06:08:10;;;;;;;9.35;8.65;;;18.70;92.80;;;;;;4975685;28;20649;-91
2022/05/04 06:10:39;;;;;;;9.10;8.50;;;19.40;91.00;;;;;;4973817;28;20035;-91
2022/05/04 06:13:06;;;;;;;8.48;7.78;;;20.30;79.20;;;;;;4977741;28;20040;-91
2022/05/04 06:15:32;;;;;;;8.85;8.10;;;21.10;74.00;;;;;;4974300;28;20082;-92
2022/05/04 06:17:58;;;;;;;8.60;7.95;;;22.00;67.90;;;;;;4975252;28;20415;-91
2022/05/04 06:20:24;;;;;;;9.52;8.85;;;22.30;65.60;;;;;;4974155;28;20037;-90
2022/05/04 06:22:50;;;;;;;10.52;8.30;;;22.50;64.70;;;;;;4974971;28;20411;-90
2022/05/04 06:25:16;;;;;;;9.95;9.05;;;23.20;63.20;;;;;;4973391;28;20138;-91
2022/05/04 06:27:42;;;;;;;7.90;7.40;;;23.50;61.30;;;;;;4975135;28;20466;-90
2022/05/04 06:35:44;;;;;;;9.50;8.88;;;24.70;56.90;;;;;;4975107;28;20038;-91
2022/05/04 06:38:10;;;;;;;9.93;9.00;;;24.80;56.00;;;;;;4973545;28;20027;-91
2022/05/04 06:40:37;;;;;;;8.48;7.88;;;25.00;56.10;;;;;;4974541;28;20035;-90
2022/05/04 06:43:03;;;;;;;8.70;8.00;;;25.20;56.50;;;;;;4962305;28;20030;-91
2022/05/04 06:45:29;;;;;;;9.38;8.68;;;25.50;53.50;;;;;;4973380;28;20042;-91
2022/05/04 06:47:55;;;;;;;9.10;8.40;;;26.10;53.70;;;;;;4973929;28;20039;-90
2022/05/04 06:50:21;;;;;;;8.65;7.95;;;26.50;52.80;;;;;;4974552;28;20310;-91
2022/05/04 06:52:46;;;;;;;8.65;8.02;;;26.50;53.50;;;;;;4974879;28;20030;-91
2022/05/04 06:55:12;;;;;;;8.18;7.47;;;27.10;49.80;;;;;;4974396;28;20031;-91
2022/05/04 06:57:38;;;;;;;11.18;9.30;;;27.30;49.60;;;;;;4974412;28;20027;-92
2022/05/04 07:00:05;;;;;;;10.82;9.90;;;27.40;49.40;;;;;;4971162;28;20034;-90
2022/05/04 07:02:35;;;;;;;9.38;8.57;;;27.80;49.50;;;;;;4966512;28;20031;-91
2022/05/04 07:05:01;;;;;;;10.93;9.27;;;28.10;49.80;;;;;;4978273;28;20463;-91
2022/05/04 07:07:27;;;;;;;9.63;8.82;;;28.00;48.90;;;;;;4972917;28;20118;-91
2022/05/04 07:09:53;;;;;;;9.38;8.55;;;28.00;48.70;;;;;;4970580;28;20054;-91
2022/05/04 07:12:20;;;;;;;8.95;8.35;;;28.40;48.60;;;;;;4961505;28;20023;-91
2022/05/04 07:14:45;;;;;;;7.90;7.30;;;28.50;48.30;;;;;;4974816;28;20035;-92
2022/05/04 07:17:11;;;;;;;9.23;8.52;;;27.60;48.00;;;;;;4986593;28;20092;-91
2022/05/04 07:19:37;;;;;;;9.05;8.40;;;27.40;49.80;;;;;;4994187;28;20033;-90
2022/05/04 07:22:03;;;;;;;9.57;8.82;;;26.50;50.10;;;;;;4993575;28;20069;-91
2022/05/04 07:24:28;;;;;;;10.02;9.27;;;26.00;52.60;;;;;;4978436;28;20030;-90
2022/05/04 07:26:54;;;;;;;9.90;9.13;;;25.10;52.80;;;;;;4994090;28;20033;-91
2022/05/04 07:29:20;;;;;;;9.65;9.05;;;24.30;54.70;;;;;;4985632;28;20136;-91
2022/05/04 07:31:46;;;;;;;9.48;8.82;;;23.60;58.10;;;;;;4992479;28;20034;-90
2022/05/04 07:34:17;;;;;;;9.27;8.57;;;22.80;58.60;;;;;;4988836;28;20038;-91
2022/05/04 07:36:44;;;;;;;10.23;9.32;;;21.90;61.00;;;;;;4979230;28;20035;-91
2022/05/04 07:42:21;;;;;;;10.95;9.90;;;21.80;62.30;;;;;;4978371;28;20023;-91
2022/05/04 07:44:40;;;;;;;9.00;8.02;;;22.20;66.60;;;;;;4985103;28;20435;-90
2022/05/04 07:47:06;;;;;;;9.15;8.20;;;24.40;60.70;;;;;;4992782;28;20037;-92
2022/05/04 07:49:32;;;;;;;8.90;7.25;;;26.30;56.00;;;;;;4992982;28;20033;-91
2022/05/04 07:51:58;;;;;;;8.18;7.38;;;27.90;54.20;;;;;;4988638;28;20023;-92
2022/05/04 07:54:24;;;;;;;8.70;7.57;;;29.10;47.80;;;;;;4991400;28;20441;-91
2022/05/04 07:56:49;;;;;;;6.72;6.22;;;29.80;46.30;;;;;;4993416;28;20060;-91
2022/05/04 07:59:15;;;;;;;7.85;7.15;;;29.90;47.00;;;;;;4981605;28;20034;-91
2022/05/04 08:04:25;;;;;;;11.70;7.60;;;28.90;47.20;;;;;;4989852;28;20041;-90
2022/05/04 08:06:50;;;;;;;7.57;6.95;;;28.10;48.40;;;;;;4992825;28;20030;-91
2022/05/04 08:09:16;;;;;;;7.63;7.13;;;27.80;50.30;;;;;;4992961;28;20493;-92
2022/05/04 08:11:43;;;;;;;7.13;6.43;;;27.60;50.20;;;;;;4993564;28;20129;-91
2022/05/04 08:14:10;;;;;;;7.72;7.13;;;28.00;48.70;;;;;;4992279;28;20057;-89
2022/05/04 08:16:36;;;;;;;7.40;6.80;;;28.50;47.20;;;;;;4975388;28;20486;-92
2022/05/04 08:19:03;;;;;;;7.68;7.13;;;28.80;48.50;;;;;;4992482;28;20103;-91
2022/05/04 08:21:29;;;;;;;7.72;6.97;;;29.00;47.60;;;;;;4975100;28;20038;-92
2022/05/04 08:23:55;;;;;;;7.05;6.40;;;29.20;47.00;;;;;;4991796;28;20093;-91
2022/05/04 08:26:21;;;;;;;8.18;6.82;;;29.00;47.30;;;;;;4992058;28;20034;-92
2022/05/04 08:28:46;;;;;;;9.43;7.63;;;28.80;48.80;;;;;;4991263;28;20026;-91
2022/05/04 08:31:12;;;;;;;6.95;6.50;;;28.60;46.80;;;;;;4990365;28;20030;-92
2022/05/04 08:33:38;;;;;;;8.32;7.63;;;28.60;47.30;;;;;;4992403;28;20089;-92
2022/05/04 08:36:04;;;;;;;7.28;6.78;;;28.50;47.70;;;;;;4972158;28;20478;-92
2022/05/04 08:38:29;;;;;;;7.50;6.90;;;28.40;48.10;;;;;;4992049;28;20133;-91
2022/05/04 08:40:56;;;;;;;7.50;6.90;;;29.00;49.10;;;;;;4974935;28;20100;-90
2022/05/04 08:43:24;;;;;;;7.95;7.00;;;29.40;46.20;;;;;;4991907;28;20033;-92
2022/05/04 08:45:53;;;;;;;7.57;6.60;;;29.80;45.60;;;;;;4987642;28;20030;-91
2022/05/04 08:48:22;;;;;;;7.93;7.22;;;30.00;46.50;;;;;;4992236;28;20025;-93
2022/05/04 08:50:50;;;;;;;7.78;7.07;;;30.40;44.80;;;;;;4975587;28;20042;-91
2022/05/04 08:53:16;;;;;;;7.75;7.13;;;29.60;45.20;;;;;;4992082;28;20041;-92
2022/05/04 08:55:43;;;;;;;7.15;6.45;;;28.10;47.40;;;;;;4974907;28;20053;-91
2022/05/04 08:58:09;;;;;;;6.95;5.82;;;28.50;48.10;;;;;;4992648;28;20057;-92
2022/05/04 09:00:35;;;;;;;9.23;6.03;;;29.20;49.20;;;;;;4974665;28;20509;-93
2022/05/04 09:03:01;;;;;;;7.90;6.40;;;29.00;48.30;;;;;;4975161;28;20026;-93
2022/05/04 09:05:29;;;;;;;7.00;6.40;;;29.40;48.10;;;;;;4971460;28;20058;-92
2022/05/04 09:07:58;;;;;;;6.15;5.65;;;29.10;47.00;;;;;;4987743;28;20446;-92
2022/05/04 09:10:31;;;;;;;6.70;6.20;;;29.00;47.00;;;;;;4972596;28;20038;-92
2022/05/04 09:12:59;;;;;;;6.50;5.90;;;28.50;49.00;;;;;;4978154;28;20030;-92
2022/05/04 09:15:27;;;;;;;6.78;6.13;;;28.20;50.00;;;;;;4990155;28;20508;-92
2022/05/04 09:18:01;;;;;;;5.93;5.43;;;28.70;50.50;;;;;;4955499;28;20403;-93
2022/05/04 09:20:58;;;;;;;5.90;5.40;;;28.90;49.10;;;;;;4972717;28;20114;-93
2022/05/04 09:23:26;;;;;;;5.47;4.97;;;28.60;50.50;;;;;;4972539;28;20027;-92
2022/05/04 09:25:54;;;;;;;5.25;4.75;;;28.60;49.50;;;;;;4986442;28;20034;-92
2022/05/04 09:28:21;;;;;;;7.22;4.50;;;28.20;47.40;;;;;;4977183;28;20046;-93
2022/05/04 09:30:48;;;;;;;4.63;4.22;;;28.20;48.80;;;;;;4971933;28;20023;-93
2022/05/04 09:33:18;;;;;;;4.38;4.03;;;28.30;46.90;;;;;;4972901;28;20023;-93
2022/05/04 09:35:44;;;;;;;4.85;4.18;;;28.10;48.00;;;;;;4965865;28;20023;-92
2022/05/04 09:46:42;;;;;;;4.40;3.92;;;27.40;48.20;;;;;;4958108;28;20513;-91
2022/05/04 09:49:34;;;;;;;4.20;3.30;;;28.00;49.70;;;;;;4972351;28;20051;-93
2022/05/04 09:52:04;;;;;;;4.07;3.40;;;27.90;48.80;;;;;;4964853;28;20143;-94
2022/05/04 09:54:30;;;;;;;5.00;3.75;;;28.30;49.50;;;;;;4976119;28;20027;-94
2022/05/04 09:57:01;;;;;;;6.75;3.03;;;28.40;47.80;;;;;;4971751;28;20057;-92
2022/05/04 09:59:29;;;;;;;3.35;3.10;;;28.30;45.90;;;;;;4973303;28;20439;-92
2022/05/04 10:01:55;;;;;;;3.88;3.58;;;28.20;47.90;;;;;;4974710;28;20034;-93
2022/05/04 10:04:25;;;;;;;3.60;3.30;;;28.30;46.50;;;;;;4990859;28;20034;-93
2022/05/04 10:06:52;;;;;;;5.43;3.03;;;28.70;49.10;;;;;;4982847;28;20058;-93
2022/05/04 10:09:18;;;;;;;3.67;3.35;;;28.40;50.00;;;;;;4975362;28;20026;-93
2022/05/04 10:11:44;;;;;;;2.33;2.13;;;28.80;47.20;;;;;;4975134;28;20077;-92
2022/05/04 10:14:15;;;;;;;2.67;2.47;;;28.10;43.30;;;;;;4971855;28;20495;-94
2022/05/04 10:16:57;;;;;;;2.58;2.38;;;27.60;45.60;;;;;;4972410;28;20023;-93
2022/05/04 10:19:33;;;;;;;3.45;3.15;;;27.00;47.70;;;;;;4975743;28;20023;-92
2022/05/04 10:22:00;;;;;;;2.58;2.38;;;27.00;47.50;;;;;;4974306;28;20659;-93
2022/05/04 10:24:30;;;;;;;2.28;2.08;;;28.30;48.50;;;;;;4976039;28;20033;-94
2022/05/04 10:27:17;;;;;;;4.63;2.67;;;29.10;45.40;;;;;;4975060;28;20054;-93
2022/05/04 10:32:36;;;;;;;2.85;2.63;;;29.30;44.30;;;;;;4972374;28;20029;-93
2022/05/04 10:35:17;;;;;;;2.90;2.25;;;29.50;44.40;;;;;;4974767;28;20027;-94
2022/05/04 10:37:52;;;;;;;2.72;2.53;;;29.70;43.70;;;;;;4975532;28;20031;-92
2022/05/04 10:40:53;;;;;;;2.83;2.63;;;30.50;46.00;;;;;;4975753;28;20030;-92
2022/05/04 10:43:37;;;;;;;4.47;2.80;;;30.10;42.00;;;;;;4963322;28;20027;-93
2022/05/04 10:46:06;;;;;;;2.58;2.38;;;29.70;42.30;;;;;;4970470;28;20023;-93
2022/05/04 10:48:32;;;;;;;2.40;2.20;;;29.60;43.40;;;;;;4973259;28;20027;-94
2022/05/04 10:51:03;;;;;;;3.20;2.30;;;30.30;43.30;;;;;;4976946;28;20394;-93
2022/05/04 10:53:29;;;;;;;4.05;2.90;;;29.80;42.00;;;;;;4976075;28;20023;-94
2022/05/04 10:56:01;;;;;;;6.68;3.05;;;28.40;45.20;;;;;;4976119;28;20119;-93
2022/05/04 10:58:38;;;;;;;3.45;2.63;;;27.60;46.20;;;;;;4975071;28;20059;-92
2022/05/04 11:01:10;;;;;;;7.88;2.88;;;27.30;46.30;;;;;;4969123;28;20019;-92
2022/05/04 11:03:38;;;;;;;3.45;3.15;;;27.10;46.10;;;;;;4974081;28;20109;-92
2022/05/04 11:06:08;;;;;;;3.85;3.03;;;27.10;46.30;;;;;;4976756;28;20076;-92
2022/05/04 11:08:40;;;;;;;3.08;2.47;;;27.10;44.50;;;;;;4975560;28;20094;-92
2022/05/04 11:11:07;;;;;;;2.75;2.13;;;27.60;46.20;;;;;;4976303;28;20026;-91
2022/05/04 11:13:33;;;;;;;4.40;2.72;;;27.10;43.10;;;;;;4965077;28;20027;-92
2022/05/04 11:16:00;;;;;;;2.42;1.98;;;27.20;44.80;;;;;;4958431;28;20403;-91
2022/05/04 11:18:27;;;;;;;2.55;2.28;;;27.10;46.30;;;;;;4948170;28;20037;-91
2022/05/04 11:20:54;;;;;;;2.42;2.22;;;26.80;46.00;;;;;;4957394;28;20027;-93
2022/05/04 11:23:24;;;;;;;2.80;2.47;;;25.70;43.70;;;;;;4974169;28;20439;-91
2022/05/04 11:25:50;;;;;;;4.30;2.13;;;25.80;45.60;;;;;;4956811;28;20062;-91
2022/05/04 11:28:23;;;;;;;2.97;2.63;;;25.80;46.90;;;;;;4974200;28;20027;-93
2022/05/04 11:30:49;;;;;;;2.70;2.50;;;25.70;46.40;;;;;;4973833;28;20097;-92
2022/05/04 11:33:15;;;;;;;2.67;2.47;;;25.20;46.10;;;;;;4973742;28;20641;-91
2022/05/04 11:35:50;;;;;;;2.75;2.45;;;25.00;48.20;;;;;;4957055;28;20467;-91
2022/05/04 11:38:23;;;;;;;2.60;2.40;;;25.00;52.20;;;;;;4956548;28;20042;-91
2022/05/04 11:40:50;;;;;;;3.25;2.50;;;24.70;47.40;;;;;;4947532;28;20062;-91
2022/05/04 11:43:30;;;;;;;2.53;2.33;;;24.50;48.50;;;;;;4952624;28;20407;-91
2022/05/04 11:45:55;;;;;;;3.15;2.85;;;24.20;48.80;;;;;;4973763;28;20118;-91
2022/05/04 11:48:22;;;;;;;2.20;2.10;;;24.30;49.40;;;;;;4956466;28;20118;-91
2022/05/04 11:50:49;;;;;;;2.40;2.20;;;24.40;48.60;;;;;;4974745;28;20422;-91
2022/05/04 11:53:15;;;;;;;2.25;2.15;;;24.70;49.60;;;;;;4956318;28;20023;-91
2022/05/04 11:55:41;;;;;;;5.55;2.65;;;25.00;46.80;;;;;;4985877;28;20045;-93
2022/05/04 11:58:11;;;;;;;2.40;2.20;;;25.30;48.30;;;;;;4985112;28;20034;-92
2022/05/04 12:00:38;;;;;;;2.40;2.20;;;25.10;49.10;;;;;;4956835;28;20034;-92
2022/05/04 12:03:08;;;;;;;3.75;2.65;;;24.80;50.40;;;;;;4972578;28;20109;-91
2022/05/04 12:05:35;;;;;;;2.70;2.50;;;24.40;49.90;;;;;;4993048;28;20070;-92
2022/05/04 12:08:06;;;;;;;3.67;2.25;;;24.30;48.10;;;;;;4975756;28;20129;-92
2022/05/04 12:10:34;;;;;;;3.10;2.20;;;24.60;51.50;;;;;;4975323;28;20031;-91
2022/05/04 12:13:01;;;;;;;2.90;2.55;;;24.90;52.30;;;;;;4968392;28;20041;-92
2022/05/04 12:15:30;;;;;;;4.07;2.60;;;25.00;50.70;;;;;;4992739;28;20027;-90
2022/05/04 12:18:05;;;;;;;3.20;2.10;;;25.10;49.40;;;;;;4993260;28;20102;-91
2022/05/04 12:20:34;;;;;;;4.90;2.20;;;25.10;49.80;;;;;;4992354;28;20030;-92
2022/05/04 12:23:01;;;;;;;2.50;2.10;;;25.10;51.40;;;;;;4990882;28;20397;-92
2022/05/04 12:25:27;;;;;;;3.13;2.10;;;25.20;48.70;;;;;;4991427;28;20027;-93
2022/05/04 12:28:02;;;;;;;4.65;2.30;;;25.30;50.00;;;;;;4986897;28;20059;-93
2022/05/04 12:33:17;;;;;;;3.80;3.50;;;25.30;49.60;;;;;;4973783;28;20309;-93
2022/05/04 12:35:46;;;;;;;4.07;3.50;;;25.30;49.00;;;;;;4973674;28;20467;-93
2022/05/04 12:38:19;;;;;;;3.10;2.63;;;25.40;49.70;;;;;;4972733;28;20026;-93
2022/05/04 12:40:48;;;;;;;2.20;2.00;;;25.50;50.10;;;;;;4973401;28;20037;-92
2022/05/04 12:43:14;;;;;;;2.40;2.20;;;25.50;46.80;;;;;;4973111;28;20562;-92
2022/05/04 12:45:40;;;;;;;5.03;2.40;;;25.70;47.80;;;;;;4971703;28;20022;-92
2022/05/04 12:48:08;;;;;;;3.75;2.80;;;26.00;50.90;;;;;;4977519;28;20945;-93
2022/05/04 12:50:39;;;;;;;5.50;2.85;;;25.90;45.90;;;;;;4966245;28;20038;-92
2022/05/04 12:53:05;;;;;;;3.35;2.50;;;25.80;50.80;;;;;;4976570;28;20030;-92
2022/05/04 12:58:16;;;;;;;3.13;2.72;;;26.20;48.40;;;;;;4973921;28;20057;-93
2022/05/04 13:00:49;;;;;;;2.50;2.30;;;26.20;48.50;;;;;;4970902;28;20023;-92
2022/05/04 13:03:15;;;;;;;2.80;2.42;;;26.20;48.60;;;;;;4961126;28;20487;-93
2022/05/04 13:05:40;;;;;;;3.63;2.80;;;26.00;49.70;;;;;;4967232;28;20021;-93
2022/05/04 13:08:14;;;;;;;2.58;2.33;;;25.80;50.20;;;;;;4989238;28;20055;-93
2022/05/04 13:10:40;;;;;;;6.13;3.20;;;25.60;49.80;;;;;;4964148;28;20041;-93
2022/05/04 13:13:11;;;;;;;3.72;3.30;;;25.00;48.20;;;;;;4973182;28;20034;-93
2022/05/04 13:15:37;;;;;;;;;;;24.10;48.90;;;;;;4978688;28;20023;-93
2022/05/04 13:18:03;;;;;;;3.33;3.05;;;23.10;51.10;;;;;;4975385;28;19917;-93
2022/05/04 13:20:29;;;;;;;4.32;3.72;;;22.60;52.20;;;;;;4971016;28;20027;-94
2022/05/04 13:22:56;;;;;;;4.55;3.60;;;22.10;54.90;;;;;;4974903;28;20038;-94